In Rescue
 
Open Full Screen Window  High Contrast Mode
Wind Gusting 21 knots
13
April 19, 2021 7:50 PM CDT
Weather Information
Wind Direction
  340 °
Wind Speed
  13 kt (15 mph)
Wind Gust
  21 kt (24 mph)
Altimeter
30.07 in
Visibility
10 SM
Temperature
01° C
34° F
Dewpoint
-09° C
16° F
Humidity
48%
1hr Rain Fall
00.00 in.
24hr Rain Fall
00.00 in.
Sky Condition
Broken @ 6,000 ft
VFR

METAR KFFM 200050Z AUTO 34013G21KT 10SM BKN060 01/M09 A3007 RMK AO2

FAA Disclaimer: The data displayed is for advisory purposes only and is not to be used for flight planning or operations.